sensor_id;sensor_type;location;lat;lon;timestamp;P1;P2;P0
74419;PMS5003;62855;50.718;-2.460;2023-02-28T00:02:05;1.95;1.57;
74419;PMS5003;62855;50.718;-2.460;2023-02-28T00:05:06;1.86;1.47;
74419;PMS5003;62855;50.718;-2.460;2023-02-28T00:08:05;1.74;1.34;
74419;PMS5003;62855;50.718;-2.460;2023-02-28T00:11:06;1.76;1.36;
74419;PMS5003;62855;50.718;-2.460;2023-02-28T00:14:05;1.8;1.4;
74419;PMS5003;62855;50.718;-2.460;2023-02-28T00:17:05;1.82;1.45;
74419;PMS5003;62855;50.718;-2.460;2023-02-28T00:20:06;1.88;1.53;
74419;PMS5003;62855;50.718;-2.460;2023-02-28T00:23:05;1.97;1.63;
74419;PMS5003;62855;50.718;-2.460;2023-02-28T00:26:06;2.11;1.77;
74419;PMS5003;62855;50.718;-2.460;2023-02-28T00:29:06;2.26;1.94;
74419;PMS5003;62855;50.718;-2.460;2023-02-28T00:32:06;2.39;2.07;
74419;PMS5003;62855;50.718;-2.460;2023-02-28T00:35:06;2.52;2.22;
74419;PMS5003;62855;50.718;-2.460;2023-02-28T00:38:06;2.66;2.37;
74419;PMS5003;62855;50.718;-2.460;2023-02-28T00:41:06;2.77;2.49;
74419;PMS5003;62855;50.718;-2.460;2023-02-28T00:44:05;2.89;2.6;
74419;PMS5003;62855;50.718;-2.460;2023-02-28T00:47:05;3.05;2.75;
74419;PMS5003;62855;50.718;-2.460;2023-02-28T00:50:06;3.19;2.9;
74419;PMS5003;62855;50.718;-2.460;2023-02-28T00:53:05;3.32;3.05;
74419;PMS5003;62855;50.718;-2.460;2023-02-28T00:56:06;3.46;3.2;
74419;PMS5003;62855;50.718;-2.460;2023-02-28T00:59:06;3.6;3.33;
74419;PMS5003;62855;50.718;-2.460;2023-02-28T01:02:06;3.74;3.43;
74419;PMS5003;62855;50.718;-2.460;2023-02-28T01:05:06;3.88;3.53;
74419;PMS5003;62855;50.718;-2.460;2023-02-28T01:08:05;3.98;3.61;
74419;PMS5003;62855;50.718;-2.460;2023-02-28T01:11:07;4.0;3.63;
74419;PMS5003;62855;50.718;-2.460;2023-02-28T01:14:06;4.0;3.63;
74419;PMS5003;62855;50.718;-2.460;2023-02-28T01:17:06;4.03;3.63;
74419;PMS5003;62855;50.718;-2.460;2023-02-28T01:20:06;4.03;3.59;
74419;PMS5003;62855;50.718;-2.460;2023-02-28T01:23:06;3.98;3.55;
74419;PMS5003;62855;50.718;-2.460;2023-02-28T01:26:06;3.93;3.5;
74419;PMS5003;62855;50.718;-2.460;2023-02-28T01:29:06;3.87;3.44;
74419;PMS5003;62855;50.718;-2.460;2023-02-28T01:32:06;3.81;3.37;
74419;PMS5003;62855;50.718;-2.460;2023-02-28T01:35:06;3.8;3.35;
74419;PMS5003;62855;50.718;-2.460;2023-02-28T01:38:06;3.75;3.31;
74419;PMS5003;62855;50.718;-2.460;2023-02-28T01:41:06;3.75;3.31;
74419;PMS5003;62855;50.718;-2.460;2023-02-28T01:44:06;3.72;3.29;
74419;PMS5003;62855;50.718;-2.460;2023-02-28T01:47:05;3.63;3.24;
74419;PMS5003;62855;50.718;-2.460;2023-02-28T01:50:06;3.54;3.19;
74419;PMS5003;62855;50.718;-2.460;2023-02-28T01:53:06;3.42;3.11;
74419;PMS5003;62855;50.718;-2.460;2023-02-28T01:56:06;3.27;3.0;
74419;PMS5003;62855;50.718;-2.460;2023-02-28T01:59:05;3.18;2.96;
74419;PMS5003;62855;50.718;-2.460;2023-02-28T02:02:05;3.08;2.96;
74419;PMS5003;62855;50.718;-2.460;2023-02-28T02:05:07;2.99;2.95;
74419;PMS5003;62855;50.718;-2.460;2023-02-28T02:08:07;2.93;2.91;
74419;PMS5003;62855;50.718;-2.460;2023-02-28T02:11:07;2.93;2.91;
74419;PMS5003;62855;50.718;-2.460;2023-02-28T02:14:10;2.93;2.91;
74419;PMS5003;62855;50.718;-2.460;2023-02-28T02:17:09;2.93;2.91;
74419;PMS5003;62855;50.718;-2.460;2023-02-28T02:20:15;2.95;2.93;
74419;PMS5003;62855;50.718;-2.460;2023-02-28T02:23:11;3.01;2.98;
74419;PMS5003;62855;50.718;-2.460;2023-02-28T02:26:11;3.1;3.03;
74419;PMS5003;62855;50.718;-2.460;2023-02-28T02:29:13;3.19;3.08;
74419;PMS5003;62855;50.718;-2.460;2023-02-28T02:32:16;3.25;3.11;
74419;PMS5003;62855;50.718;-2.460;2023-02-28T02:35:09;3.27;3.13;
74419;PMS5003;62855;50.718;-2.460;2023-02-28T02:38:06;3.31;3.18;
74419;PMS5003;62855;50.718;-2.460;2023-02-28T02:41:08;3.31;3.18;
74419;PMS5003;62855;50.718;-2.460;2023-02-28T02:44:07;3.33;3.19;
74419;PMS5003;62855;50.718;-2.460;2023-02-28T02:47:06;3.36;3.23;
74419;PMS5003;62855;50.718;-2.460;2023-02-28T02:50:06;3.36;3.23;
74419;PMS5003;62855;50.718;-2.460;2023-02-28T02:53:06;3.37;3.24;
74419;PMS5003;62855;50.718;-2.460;2023-02-28T02:56:06;3.39;3.26;
74419;PMS5003;62855;50.718;-2.460;2023-02-28T02:59:06;3.34;3.21;
74419;PMS5003;62855;50.718;-2.460;2023-02-28T03:02:06;3.3;3.16;
74419;PMS5003;62855;50.718;-2.460;2023-02-28T03:05:07;3.25;3.13;
74419;PMS5003;62855;50.718;-2.460;2023-02-28T03:08:06;3.18;3.1;
74419;PMS5003;62855;50.718;-2.460;2023-02-28T03:11:06;3.04;3.0;
74419;PMS5003;62855;50.718;-2.460;2023-02-28T03:14:09;2.95;2.95;
74419;PMS5003;62855;50.718;-2.460;2023-02-28T03:17:11;2.86;2.9;
74419;PMS5003;62855;50.718;-2.460;2023-02-28T03:20:07;2.77;2.84;
74419;PMS5003;62855;50.718;-2.460;2023-02-28T03:23:09;2.66;2.74;
74419;PMS5003;62855;50.718;-2.460;2023-02-28T03:26:06;2.53;2.64;
74419;PMS5003;62855;50.718;-2.460;2023-02-28T03:29:08;2.39;2.54;
74419;PMS5003;62855;50.718;-2.460;2023-02-28T03:32:06;2.27;2.45;
74419;PMS5003;62855;50.718;-2.460;2023-02-28T03:35:06;2.18;2.35;
74419;PMS5003;62855;50.718;-2.460;2023-02-28T03:38:07;2.09;2.25;
74419;PMS5003;62855;50.718;-2.460;2023-02-28T03:41:16;1.98;2.14;
74419;PMS5003;62855;50.718;-2.460;2023-02-28T03:44:06;1.85;1.99;
74419;PMS5003;62855;50.718;-2.460;2023-02-28T03:47:08;1.74;1.88;
74419;PMS5003;62855;50.718;-2.460;2023-02-28T03:50:07;1.7;1.83;
74419;PMS5003;62855;50.718;-2.460;2023-02-28T03:53:07;1.68;1.81;
74419;PMS5003;62855;50.718;-2.460;2023-02-28T03:56:07;1.73;1.86;
74419;PMS5003;62855;50.718;-2.460;2023-02-28T03:59:06;1.77;1.91;
74419;PMS5003;62855;50.718;-2.460;2023-02-28T04:02:06;1.82;1.96;
74419;PMS5003;62855;50.718;-2.460;2023-02-28T04:05:06;1.86;2.01;
74419;PMS5003;62855;50.718;-2.460;2023-02-28T04:08:06;1.92;2.07;
74419;PMS5003;62855;50.718;-2.460;2023-02-28T04:11:06;2.01;2.17;
74419;PMS5003;62855;50.718;-2.460;2023-02-28T04:14:06;2.07;2.23;
74419;PMS5003;62855;50.718;-2.460;2023-02-28T04:17:05;2.15;2.32;
74419;PMS5003;62855;50.718;-2.460;2023-02-28T04:20:06;2.18;2.35;
74419;PMS5003;62855;50.718;-2.460;2023-02-28T04:23:05;2.22;2.4;
74419;PMS5003;62855;50.718;-2.460;2023-02-28T04:26:06;2.27;2.44;
74419;PMS5003;62855;50.718;-2.460;2023-02-28T04:29:06;2.31;2.49;
74419;PMS5003;62855;50.718;-2.460;2023-02-28T04:32:05;2.36;2.54;
74419;PMS5003;62855;50.718;-2.460;2023-02-28T04:35:06;2.42;2.61;
74419;PMS5003;62855;50.718;-2.460;2023-02-28T04:38:05;2.51;2.7;
74419;PMS5003;62855;50.718;-2.460;2023-02-28T04:41:06;2.62;2.82;
74419;PMS5003;62855;50.718;-2.460;2023-02-28T04:44:06;2.74;2.95;
74419;PMS5003;62855;50.718;-2.460;2023-02-28T04:47:06;2.83;3.05;
74419;PMS5003;62855;50.718;-2.460;2023-02-28T04:50:06;2.89;3.11;
74419;PMS5003;62855;50.718;-2.460;2023-02-28T04:53:06;2.95;3.18;
74419;PMS5003;62855;50.718;-2.460;2023-02-28T04:56:06;2.99;3.22;
74419;PMS5003;62855;50.718;-2.460;2023-02-28T04:59:05;3.04;3.27;
74419;PMS5003;62855;50.718;-2.460;2023-02-28T05:02:05;3.08;3.32;
74419;PMS5003;62855;50.718;-2.460;2023-02-28T05:05:05;3.13;3.37;
74419;PMS5003;62855;50.718;-2.460;2023-02-28T05:08:06;3.18;3.42;
74419;PMS5003;62855;50.718;-2.460;2023-02-28T05:11:06;3.21;3.45;
74419;PMS5003;62855;50.718;-2.460;2023-02-28T05:14:06;3.21;3.45;
74419;PMS5003;62855;50.718;-2.460;2023-02-28T05:17:05;3.21;3.45;
74419;PMS5003;62855;50.718;-2.460;2023-02-28T05:20:06;3.22;3.47;
74419;PMS5003;62855;50.718;-2.460;2023-02-28T05:23:06;3.22;3.47;
74419;PMS5003;62855;50.718;-2.460;2023-02-28T05:26:05;3.22;3.47;
74419;PMS5003;62855;50.718;-2.460;2023-02-28T05:29:06;3.21;3.45;
74419;PMS5003;62855;50.718;-2.460;2023-02-28T05:32:05;3.16;3.4;
74419;PMS5003;62855;50.718;-2.460;2023-02-28T05:35:05;3.1;3.34;
74419;PMS5003;62855;50.718;-2.460;2023-02-28T05:38:06;3.02;3.26;
74419;PMS5003;62855;50.718;-2.460;2023-02-28T05:41:06;2.96;3.19;
74419;PMS5003;62855;50.718;-2.460;2023-02-28T05:44:06;2.89;3.11;
74419;PMS5003;62855;50.718;-2.460;2023-02-28T05:47:06;2.83;3.05;
74419;PMS5003;62855;50.718;-2.460;2023-02-28T05:50:06;2.77;2.98;
74419;PMS5003;62855;50.718;-2.460;2023-02-28T05:53:05;2.69;2.9;
74419;PMS5003;62855;50.718;-2.460;2023-02-28T05:56:06;2.6;2.8;
74419;PMS5003;62855;50.718;-2.460;2023-02-28T05:59:06;2.53;2.72;
74419;PMS5003;62855;50.718;-2.460;2023-02-28T06:02:06;2.48;2.67;
74419;PMS5003;62855;50.718;-2.460;2023-02-28T06:05:07;2.44;2.62;
74419;PMS5003;62855;50.718;-2.460;2023-02-28T06:08:06;2.39;2.58;
74419;PMS5003;62855;50.718;-2.460;2023-02-28T06:11:06;2.36;2.54;
74419;PMS5003;62855;50.718;-2.460;2023-02-28T06:14:06;2.35;2.53;
74419;PMS5003;62855;50.718;-2.460;2023-02-28T06:17:05;2.31;2.49;
74419;PMS5003;62855;50.718;-2.460;2023-02-28T06:20:06;2.31;2.49;
74419;PMS5003;62855;50.718;-2.460;2023-02-28T06:23:06;2.33;2.51;
74419;PMS5003;62855;50.718;-2.460;2023-02-28T06:26:06;2.38;2.56;
74419;PMS5003;62855;50.718;-2.460;2023-02-28T06:29:05;2.44;2.62;
74419;PMS5003;62855;50.718;-2.460;2023-02-28T06:32:06;2.53;2.72;
74419;PMS5003;62855;50.718;-2.460;2023-02-28T06:35:06;2.62;2.82;
74419;PMS5003;62855;50.718;-2.460;2023-02-28T06:38:05;2.68;2.88;
74419;PMS5003;62855;50.718;-2.460;2023-02-28T06:41:06;2.69;2.9;
74419;PMS5003;62855;50.718;-2.460;2023-02-28T06:44:08;2.74;2.95;
74419;PMS5003;62855;50.718;-2.460;2023-02-28T06:47:06;2.78;3.0;
74419;PMS5003;62855;50.718;-2.460;2023-02-28T06:50:07;2.81;3.03;
74419;PMS5003;62855;50.718;-2.460;2023-02-28T06:53:05;2.81;3.03;
74419;PMS5003;62855;50.718;-2.460;2023-02-28T06:56:06;2.81;3.03;
74419;PMS5003;62855;50.718;-2.460;2023-02-28T06:59:06;2.8;3.01;
74419;PMS5003;62855;50.718;-2.460;2023-02-28T07:02:07;2.75;2.96;
74419;PMS5003;62855;50.718;-2.460;2023-02-28T07:05:05;2.72;2.93;
74419;PMS5003;62855;50.718;-2.460;2023-02-28T07:08:06;2.72;2.93;
74419;PMS5003;62855;50.718;-2.460;2023-02-28T07:11:06;2.72;2.93;
74419;PMS5003;62855;50.718;-2.460;2023-02-28T07:14:06;2.71;2.92;
74419;PMS5003;62855;50.718;-2.460;2023-02-28T07:17:06;2.68;2.88;
74419;PMS5003;62855;50.718;-2.460;2023-02-28T07:20:06;2.68;2.88;
74419;PMS5003;62855;50.718;-2.460;2023-02-28T07:23:05;2.66;2.87;
74419;PMS5003;62855;50.718;-2.460;2023-02-28T07:26:05;2.63;2.82;
74419;PMS5003;62855;50.718;-2.460;2023-02-28T07:29:05;2.62;2.75;
74419;PMS5003;62855;50.718;-2.460;2023-02-28T07:32:05;2.59;2.67;
74419;PMS5003;62855;50.718;-2.460;2023-02-28T07:35:06;2.57;2.62;
74419;PMS5003;62855;50.718;-2.460;2023-02-28T07:38:06;2.54;2.59;
74419;PMS5003;62855;50.718;-2.460;2023-02-28T07:41:06;2.54;2.59;
74419;PMS5003;62855;50.718;-2.460;2023-02-28T07:44:06;2.56;2.59;
74419;PMS5003;62855;50.718;-2.460;2023-02-28T07:47:06;2.56;2.54;
74419;PMS5003;62855;50.718;-2.460;2023-02-28T07:50:06;2.62;2.56;
74419;PMS5003;62855;50.718;-2.460;2023-02-28T07:53:05;2.71;2.61;
74419;PMS5003;62855;50.718;-2.460;2023-02-28T07:56:06;2.78;2.66;
74419;PMS5003;62855;50.718;-2.460;2023-02-28T07:59:06;2.83;2.7;
74419;PMS5003;62855;50.718;-2.460;2023-02-28T08:02:05;2.87;2.75;
74419;PMS5003;62855;50.718;-2.460;2023-02-28T08:05:06;2.9;2.78;
74419;PMS5003;62855;50.718;-2.460;2023-02-28T08:08:05;2.9;2.78;
74419;PMS5003;62855;50.718;-2.460;2023-02-28T08:11:05;2.9;2.78;
74419;PMS5003;62855;50.718;-2.460;2023-02-28T08:14:06;2.92;2.8;
74419;PMS5003;62855;50.718;-2.460;2023-02-28T08:17:06;2.95;2.83;
74419;PMS5003;62855;50.718;-2.460;2023-02-28T08:20:06;2.95;2.83;
74419;PMS5003;62855;50.718;-2.460;2023-02-28T08:23:05;2.95;2.83;
74419;PMS5003;62855;50.718;-2.460;2023-02-28T08:26:05;2.95;2.83;
74419;PMS5003;62855;50.718;-2.460;2023-02-28T08:29:05;2.95;2.83;
74419;PMS5003;62855;50.718;-2.460;2023-02-28T08:32:06;2.93;2.82;
74419;PMS5003;62855;50.718;-2.460;2023-02-28T08:35:06;2.95;2.82;
74419;PMS5003;62855;50.718;-2.460;2023-02-28T08:38:05;2.99;2.83;
74419;PMS5003;62855;50.718;-2.460;2023-02-28T08:41:06;3.05;2.87;
74419;PMS5003;62855;50.718;-2.460;2023-02-28T08:44:05;3.13;2.88;
74419;PMS5003;62855;50.718;-2.460;2023-02-28T08:47:05;3.22;2.98;
74419;PMS5003;62855;50.718;-2.460;2023-02-28T08:50:05;3.27;3.03;
74419;PMS5003;62855;50.718;-2.460;2023-02-28T08:53:05;3.31;3.08;
74419;PMS5003;62855;50.718;-2.460;2023-02-28T08:56:06;3.37;3.13;
74419;PMS5003;62855;50.718;-2.460;2023-02-28T08:59:06;3.45;3.18;
74419;PMS5003;62855;50.718;-2.460;2023-02-28T09:02:08;3.49;3.22;
74419;PMS5003;62855;50.718;-2.460;2023-02-28T09:05:06;3.54;3.27;
74419;PMS5003;62855;50.718;-2.460;2023-02-28T09:08:06;3.58;3.31;
74419;PMS5003;62855;50.718;-2.460;2023-02-28T09:11:06;3.61;3.31;
74419;PMS5003;62855;50.718;-2.460;2023-02-28T09:14:05;3.61;3.31;
74419;PMS5003;62855;50.718;-2.460;2023-02-28T09:17:05;3.61;3.31;
74419;PMS5003;62855;50.718;-2.460;2023-02-28T09:20:06;3.61;3.31;
74419;PMS5003;62855;50.718;-2.460;2023-02-28T09:23:06;3.61;3.31;
74419;PMS5003;62855;50.718;-2.460;2023-02-28T09:26:06;3.6;3.31;
74419;PMS5003;62855;50.718;-2.460;2023-02-28T09:29:06;3.57;3.32;
74419;PMS5003;62855;50.718;-2.460;2023-02-28T09:32:06;3.57;3.37;
74419;PMS5003;62855;50.718;-2.460;2023-02-28T09:35:06;3.52;3.37;
74419;PMS5003;62855;50.718;-2.460;2023-02-28T09:38:05;3.46;3.34;
74419;PMS5003;62855;50.718;-2.460;2023-02-28T09:42:05;3.34;3.26;
74419;PMS5003;62855;50.718;-2.460;2023-02-28T09:45:07;3.25;3.23;
74419;PMS5003;62855;50.718;-2.460;2023-02-28T09:48:07;3.15;3.18;
74419;PMS5003;62855;50.718;-2.460;2023-02-28T09:51:09;3.03;3.1;
74419;PMS5003;62855;50.718;-2.460;2023-02-28T09:54:08;2.92;3.03;
74419;PMS5003;62855;50.718;-2.460;2023-02-28T09:57:06;2.81;2.96;
74419;PMS5003;62855;50.718;-2.460;2023-02-28T10:00:10;2.72;2.88;
74419;PMS5003;62855;50.718;-2.460;2023-02-28T10:03:13;2.68;2.83;
74419;PMS5003;62855;50.718;-2.460;2023-02-28T10:06:07;2.61;2.77;
74419;PMS5003;62855;50.718;-2.460;2023-02-28T10:09:06;2.52;2.7;
74419;PMS5003;62855;50.718;-2.460;2023-02-28T10:12:05;2.46;2.65;
74419;PMS5003;62855;50.718;-2.460;2023-02-28T10:15:07;2.45;2.63;
74419;PMS5003;62855;50.718;-2.460;2023-02-28T10:18:06;2.45;2.63;
74419;PMS5003;62855;50.718;-2.460;2023-02-28T10:21:06;2.45;2.63;
74419;PMS5003;62855;50.718;-2.460;2023-02-28T10:24:11;2.43;2.62;
74419;PMS5003;62855;50.718;-2.460;2023-02-28T10:27:12;2.38;2.57;
74419;PMS5003;62855;50.718;-2.460;2023-02-28T10:30:05;2.34;2.52;
74419;PMS5003;62855;50.718;-2.460;2023-02-28T10:33:08;2.29;2.47;
74419;PMS5003;62855;50.718;-2.460;2023-02-28T10:36:08;2.23;2.4;
74419;PMS5003;62855;50.718;-2.460;2023-02-28T10:42:18;2.19;2.35;
74419;PMS5003;62855;50.718;-2.460;2023-02-28T10:45:10;2.19;2.3;
74419;PMS5003;62855;50.718;-2.460;2023-02-28T10:48:06;2.19;2.27;
74419;PMS5003;62855;50.718;-2.460;2023-02-28T10:51:06;2.24;2.3;
74419;PMS5003;62855;50.718;-2.460;2023-02-28T10:54:06;2.3;2.32;
74419;PMS5003;62855;50.718;-2.460;2023-02-28T10:57:07;2.36;2.33;
74419;PMS5003;62855;50.718;-2.460;2023-02-28T11:00:11;2.44;2.36;
74419;PMS5003;62855;50.718;-2.460;2023-02-28T11:03:05;2.48;2.36;
74419;PMS5003;62855;50.718;-2.460;2023-02-28T11:06:06;2.56;2.38;
74419;PMS5003;62855;50.718;-2.460;2023-02-28T11:09:06;2.69;2.43;
74419;PMS5003;62855;50.718;-2.460;2023-02-28T11:12:06;2.81;2.48;
74419;PMS5003;62855;50.718;-2.460;2023-02-28T11:15:06;2.87;2.49;
74419;PMS5003;62855;50.718;-2.460;2023-02-28T11:18:14;2.9;2.48;
74419;PMS5003;62855;50.718;-2.460;2023-02-28T11:21:06;2.9;2.43;
74419;PMS5003;62855;50.718;-2.460;2023-02-28T11:24:12;2.92;2.4;
74419;PMS5003;62855;50.718;-2.460;2023-02-28T11:27:06;2.96;2.4;
74419;PMS5003;62855;50.718;-2.460;2023-02-28T11:30:12;3.01;2.4;
74419;PMS5003;62855;50.718;-2.460;2023-02-28T11:33:25;3.05;2.41;
74419;PMS5003;62855;50.718;-2.460;2023-02-28T11:36:09;3.1;2.46;
74419;PMS5003;62855;50.718;-2.460;2023-02-28T11:39:08;3.15;2.51;
74419;PMS5003;62855;50.718;-2.460;2023-02-28T11:42:21;3.18;2.56;
74419;PMS5003;62855;50.718;-2.460;2023-02-28T11:45:17;3.18;2.61;
74419;PMS5003;62855;50.718;-2.460;2023-02-28T11:48:08;3.19;2.66;
74419;PMS5003;62855;50.718;-2.460;2023-02-28T11:51:08;3.22;2.7;
74419;PMS5003;62855;50.718;-2.460;2023-02-28T11:54:08;3.24;2.75;
74419;PMS5003;62855;50.718;-2.460;2023-02-28T11:57:09;3.28;2.8;
74419;PMS5003;62855;50.718;-2.460;2023-02-28T12:00:07;3.31;2.83;
74419;PMS5003;62855;50.718;-2.460;2023-02-28T12:03:09;3.35;2.88;
74419;PMS5003;62855;50.718;-2.460;2023-02-28T12:06:09;3.34;2.93;
74419;PMS5003;62855;50.718;-2.460;2023-02-28T12:09:11;3.29;2.97;
74419;PMS5003;62855;50.718;-2.460;2023-02-28T12:12:07;3.25;2.98;
74419;PMS5003;62855;50.718;-2.460;2023-02-28T12:15:13;3.25;2.98;
74419;PMS5003;62855;50.718;-2.460;2023-02-28T12:18:09;3.24;3.0;
74419;PMS5003;62855;50.718;-2.460;2023-02-28T12:21:08;3.24;3.02;
74419;PMS5003;62855;50.718;-2.460;2023-02-28T12:24:10;3.24;3.02;
74419;PMS5003;62855;50.718;-2.460;2023-02-28T12:27:07;3.21;3.02;
74419;PMS5003;62855;50.718;-2.460;2023-02-28T12:30:08;3.16;3.02;
74419;PMS5003;62855;50.718;-2.460;2023-02-28T12:33:07;3.11;3.0;
74419;PMS5003;62855;50.718;-2.460;2023-02-28T12:36:09;3.08;2.97;
74419;PMS5003;62855;50.718;-2.460;2023-02-28T12:39:07;3.04;2.92;
74419;PMS5003;62855;50.718;-2.460;2023-02-28T12:42:08;3.0;2.88;
74419;PMS5003;62855;50.718;-2.460;2023-02-28T12:45:07;3.0;2.88;
74419;PMS5003;62855;50.718;-2.460;2023-02-28T12:48:08;2.97;2.85;
74419;PMS5003;62855;50.718;-2.460;2023-02-28T12:51:06;2.9;2.77;
74419;PMS5003;62855;50.718;-2.460;2023-02-28T12:54:09;2.86;2.75;
74419;PMS5003;62855;50.718;-2.460;2023-02-28T12:57:07;2.82;2.75;
74419;PMS5003;62855;50.718;-2.460;2023-02-28T13:00:10;2.77;2.73;
74419;PMS5003;62855;50.718;-2.460;2023-02-28T13:03:10;2.68;2.68;
74419;PMS5003;62855;50.718;-2.460;2023-02-28T13:06:10;2.66;2.67;
74419;PMS5003;62855;50.718;-2.460;2023-02-28T13:09:08;2.63;2.64;
74419;PMS5003;62855;50.718;-2.460;2023-02-28T13:12:12;2.56;2.59;
74419;PMS5003;62855;50.718;-2.460;2023-02-28T13:15:07;2.48;2.56;
74419;PMS5003;62855;50.718;-2.460;2023-02-28T13:18:20;2.42;2.51;
74419;PMS5003;62855;50.718;-2.460;2023-02-28T13:21:06;2.38;2.49;
74419;PMS5003;62855;50.718;-2.460;2023-02-28T13:24:07;2.33;2.49;
74419;PMS5003;62855;50.718;-2.460;2023-02-28T13:27:21;2.32;2.49;
74419;PMS5003;62855;50.718;-2.460;2023-02-28T13:33:23;2.32;2.49;
74419;PMS5003;62855;50.718;-2.460;2023-02-28T13:36:07;2.32;2.49;
74419;PMS5003;62855;50.718;-2.460;2023-02-28T13:45:21;2.32;2.5;
74419;PMS5003;62855;50.718;-2.460;2023-02-28T13:48:15;2.33;2.51;
74419;PMS5003;62855;50.718;-2.460;2023-02-28T13:54:11;2.26;2.43;
74419;PMS5003;62855;50.718;-2.460;2023-02-28T13:57:10;2.18;2.35;
74419;PMS5003;62855;50.718;-2.460;2023-02-28T14:00:13;2.17;2.33;
74419;PMS5003;62855;50.718;-2.460;2023-02-28T14:03:09;2.2;2.36;
74419;PMS5003;62855;50.718;-2.460;2023-02-28T14:06:18;2.21;2.38;
74419;PMS5003;62855;50.718;-2.460;2023-02-28T14:09:06;2.26;2.4;
74419;PMS5003;62855;50.718;-2.460;2023-02-28T14:15:23;2.41;2.46;
74419;PMS5003;62855;50.718;-2.460;2023-02-28T14:18:10;2.47;2.51;
74419;PMS5003;62855;50.718;-2.460;2023-02-28T14:21:10;2.51;2.56;
74419;PMS5003;62855;50.718;-2.460;2023-02-28T14:24:20;2.59;2.61;
74419;PMS5003;62855;50.718;-2.460;2023-02-28T14:27:11;2.65;2.66;
74419;PMS5003;62855;50.718;-2.460;2023-02-28T14:30:19;2.69;2.7;
74419;PMS5003;62855;50.718;-2.460;2023-02-28T14:33:11;2.74;2.72;
74419;PMS5003;62855;50.718;-2.460;2023-02-28T14:36:07;2.75;2.72;
74419;PMS5003;62855;50.718;-2.460;2023-02-28T14:39:07;2.78;2.75;
74419;PMS5003;62855;50.718;-2.460;2023-02-28T14:45:16;2.8;2.77;
74419;PMS5003;62855;50.718;-2.460;2023-02-28T14:48:08;2.8;2.77;
74419;PMS5003;62855;50.718;-2.460;2023-02-28T14:51:06;2.83;2.8;
74419;PMS5003;62855;50.718;-2.460;2023-02-28T14:54:06;2.87;2.85;
74419;PMS5003;62855;50.718;-2.460;2023-02-28T14:57:06;2.9;2.88;
74419;PMS5003;62855;50.718;-2.460;2023-02-28T15:00:09;2.9;2.88;
74419;PMS5003;62855;50.718;-2.460;2023-02-28T15:03:17;2.84;2.82;
74419;PMS5003;62855;50.718;-2.460;2023-02-28T15:06:06;2.77;2.74;
74419;PMS5003;62855;50.718;-2.460;2023-02-28T15:09:06;2.69;2.69;
74419;PMS5003;62855;50.718;-2.460;2023-02-28T15:12:06;2.6;2.64;
74419;PMS5003;62855;50.718;-2.460;2023-02-28T15:15:06;2.51;2.59;
74419;PMS5003;62855;50.718;-2.460;2023-02-28T15:18:05;2.4;2.49;
74419;PMS5003;62855;50.718;-2.460;2023-02-28T15:21:06;2.34;2.43;
74419;PMS5003;62855;50.718;-2.460;2023-02-28T15:24:06;2.24;2.35;
74419;PMS5003;62855;50.718;-2.460;2023-02-28T15:27:06;2.13;2.25;
74419;PMS5003;62855;50.718;-2.460;2023-02-28T15:30:06;2.07;2.18;
74419;PMS5003;62855;50.718;-2.460;2023-02-28T15:33:07;2.0;2.14;
74419;PMS5003;62855;50.718;-2.460;2023-02-28T15:36:07;1.97;2.12;
74419;PMS5003;62855;50.718;-2.460;2023-02-28T15:42:16;2.04;2.2;
74419;PMS5003;62855;50.718;-2.460;2023-02-28T15:48:09;2.12;2.28;
74419;PMS5003;62855;50.718;-2.460;2023-02-28T15:51:07;2.15;2.31;
74419;PMS5003;62855;50.718;-2.460;2023-02-28T15:54:06;2.19;2.36;
74419;PMS5003;62855;50.718;-2.460;2023-02-28T15:57:06;2.24;2.41;
74419;PMS5003;62855;50.718;-2.460;2023-02-28T16:00:09;2.29;2.46;
74419;PMS5003;62855;50.718;-2.460;2023-02-28T16:09:08;2.51;2.71;
74419;PMS5003;62855;50.718;-2.460;2023-02-28T16:12:05;2.57;2.77;
74419;PMS5003;62855;50.718;-2.460;2023-02-28T16:15:07;2.62;2.82;
74419;PMS5003;62855;50.718;-2.460;2023-02-28T16:18:07;2.71;2.92;
74419;PMS5003;62855;50.718;-2.460;2023-02-28T16:21:05;2.77;2.98;
74419;PMS5003;62855;50.718;-2.460;2023-02-28T16:24:06;2.84;3.06;
74419;PMS5003;62855;50.718;-2.460;2023-02-28T16:27:05;2.93;3.16;
74419;PMS5003;62855;50.718;-2.460;2023-02-28T16:30:06;2.96;3.19;
74419;PMS5003;62855;50.718;-2.460;2023-02-28T16:33:07;2.99;3.23;
74419;PMS5003;62855;50.718;-2.460;2023-02-28T16:36:06;3.01;3.24;
74419;PMS5003;62855;50.718;-2.460;2023-02-28T16:39:06;2.96;3.19;
74419;PMS5003;62855;50.718;-2.460;2023-02-28T16:42:05;2.92;3.14;
74419;PMS5003;62855;50.718;-2.460;2023-02-28T16:45:06;2.87;3.1;
74419;PMS5003;62855;50.718;-2.460;2023-02-28T16:48:07;2.86;3.08;
74419;PMS5003;62855;50.718;-2.460;2023-02-28T16:51:05;2.83;3.01;
74419;PMS5003;62855;50.718;-2.460;2023-02-28T16:54:06;2.78;2.95;
74419;PMS5003;62855;50.718;-2.460;2023-02-28T16:57:06;2.74;2.87;
74419;PMS5003;62855;50.718;-2.460;2023-02-28T17:00:07;2.69;2.8;
74419;PMS5003;62855;50.718;-2.460;2023-02-28T17:03:08;2.65;2.75;
74419;PMS5003;62855;50.718;-2.460;2023-02-28T17:06:06;2.63;2.7;
74419;PMS5003;62855;50.718;-2.460;2023-02-28T17:09:08;2.63;2.69;
74419;PMS5003;62855;50.718;-2.460;2023-02-28T17:12:06;2.63;2.69;
74419;PMS5003;62855;50.718;-2.460;2023-02-28T17:15:06;2.63;2.69;
74419;PMS5003;62855;50.718;-2.460;2023-02-28T17:18:06;2.63;2.69;
74419;PMS5003;62855;50.718;-2.460;2023-02-28T17:21:09;2.63;2.69;
74419;PMS5003;62855;50.718;-2.460;2023-02-28T17:24:06;2.63;2.69;
74419;PMS5003;62855;50.718;-2.460;2023-02-28T17:27:05;2.63;2.69;
74419;PMS5003;62855;50.718;-2.460;2023-02-28T17:30:09;2.66;2.72;
74419;PMS5003;62855;50.718;-2.460;2023-02-28T17:33:05;2.71;2.77;
74419;PMS5003;62855;50.718;-2.460;2023-02-28T17:36:08;2.75;2.82;
74419;PMS5003;62855;50.718;-2.460;2023-02-28T17:39:08;2.77;2.83;
74419;PMS5003;62855;50.718;-2.460;2023-02-28T17:42:06;2.74;2.8;
74419;PMS5003;62855;50.718;-2.460;2023-02-28T17:45:06;2.69;2.75;
74419;PMS5003;62855;50.718;-2.460;2023-02-28T17:48:08;2.65;2.7;
74419;PMS5003;62855;50.718;-2.460;2023-02-28T17:51:05;2.6;2.69;
74419;PMS5003;62855;50.718;-2.460;2023-02-28T17:54:06;2.56;2.66;
74419;PMS5003;62855;50.718;-2.460;2023-02-28T17:57:08;2.51;2.64;
74419;PMS5003;62855;50.718;-2.460;2023-02-28T18:00:06;2.47;2.61;
74419;PMS5003;62855;50.718;-2.460;2023-02-28T18:03:05;2.42;2.56;
74419;PMS5003;62855;50.718;-2.460;2023-02-28T18:06:06;2.35;2.51;
74419;PMS5003;62855;50.718;-2.460;2023-02-28T18:09:05;2.26;2.43;
74419;PMS5003;62855;50.718;-2.460;2023-02-28T18:12:05;2.19;2.36;
74419;PMS5003;62855;50.718;-2.460;2023-02-28T18:15:05;2.15;2.32;
74419;PMS5003;62855;50.718;-2.460;2023-02-28T18:18:05;2.1;2.27;
74419;PMS5003;62855;50.718;-2.460;2023-02-28T18:21:06;2.06;2.22;
74419;PMS5003;62855;50.718;-2.460;2023-02-28T18:24:05;2.01;2.17;
74419;PMS5003;62855;50.718;-2.460;2023-02-28T18:27:05;2.0;2.15;
74419;PMS5003;62855;50.718;-2.460;2023-02-28T18:30:06;1.95;2.11;
74419;PMS5003;62855;50.718;-2.460;2023-02-28T18:33:06;1.91;2.06;
74419;PMS5003;62855;50.718;-2.460;2023-02-28T18:36:06;1.91;2.06;
74419;PMS5003;62855;50.718;-2.460;2023-02-28T18:39:05;1.94;2.09;
74419;PMS5003;62855;50.718;-2.460;2023-02-28T18:42:05;1.98;2.14;
74419;PMS5003;62855;50.718;-2.460;2023-02-28T18:45:06;2.03;2.19;
74419;PMS5003;62855;50.718;-2.460;2023-02-28T18:48:06;2.07;2.23;
74419;PMS5003;62855;50.718;-2.460;2023-02-28T18:51:06;2.12;2.28;
74419;PMS5003;62855;50.718;-2.460;2023-02-28T18:54:06;2.13;2.3;
74419;PMS5003;62855;50.718;-2.460;2023-02-28T18:57:05;2.16;2.33;
74419;PMS5003;62855;50.718;-2.460;2023-02-28T19:00:06;2.21;2.38;